createdAt,value
2022-11-20T00:00:12.846Z,62.02
2022-11-20T00:01:12.332Z,61.98
2022-11-20T00:01:45.568Z,62.75
2022-11-20T00:02:18.644Z,63.83
2022-11-20T00:02:52.162Z,64.03
2022-11-20T00:03:25.433Z,63.59
2022-11-20T00:03:59.182Z,62.92
2022-11-20T00:04:32.568Z,61.90
2022-11-20T00:05:05.727Z,60.53
2022-11-20T00:05:38.746Z,59.36
2022-11-20T00:06:13.290Z,57.69
2022-11-20T00:06:48.071Z,56.25
2022-11-20T00:07:21.343Z,55.50
2022-11-20T00:07:54.442Z,55.28
2022-11-20T00:08:27.481Z,55.47
2022-11-20T00:09:01.475Z,55.93
2022-11-20T00:09:35.315Z,56.49
2022-11-20T00:10:08.781Z,57.04
2022-11-20T00:10:42.035Z,57.71
2022-11-20T00:11:16.807Z,58.32
2022-11-20T00:11:49.988Z,58.87
2022-11-20T00:12:23.088Z,59.51
2022-11-20T00:12:56.309Z,60.04
2022-11-20T00:13:29.424Z,60.66
2022-11-20T00:14:03.045Z,61.22
2022-11-20T00:14:36.283Z,61.81
2022-11-20T00:15:09.964Z,62.33
2022-11-20T00:15:42.981Z,62.76
2022-11-20T00:16:17.718Z,63.51
2022-11-20T00:16:51.217Z,64.00
2022-11-20T00:17:24.415Z,63.90
2022-11-20T00:17:57.711Z,62.99
2022-11-20T00:18:31.422Z,61.79
2022-11-20T00:19:04.674Z,60.85
2022-11-20T00:19:37.781Z,59.62
2022-11-20T00:20:11.339Z,58.20
2022-11-20T00:20:44.519Z,56.60
2022-11-20T00:21:19.201Z,55.43
2022-11-20T00:21:56.583Z,54.94
2022-11-20T00:22:29.696Z,54.85
2022-11-20T00:23:02.789Z,55.37
2022-11-20T00:23:35.824Z,55.87
2022-11-20T00:24:09.409Z,56.44
2022-11-20T00:24:43.280Z,56.97
2022-11-20T00:25:16.459Z,57.52
2022-11-20T00:25:49.631Z,58.00
2022-11-20T00:26:24.244Z,58.56
2022-11-20T00:26:57.477Z,59.07
2022-11-20T00:27:30.617Z,59.57
2022-11-20T00:28:03.689Z,60.10
2022-11-20T00:28:36.996Z,60.56
2022-11-20T00:29:10.948Z,61.02
2022-11-20T00:29:44.105Z,61.49
2022-11-20T00:30:17.312Z,61.96
2022-11-20T00:30:50.400Z,62.32
2022-11-20T00:31:23.794Z,62.67
2022-11-20T00:31:57.723Z,63.30
2022-11-20T00:32:32.981Z,63.98
2022-11-20T00:33:06.073Z,63.64
2022-11-20T00:33:39.208Z,62.75
2022-11-20T00:34:12.331Z,61.60
2022-11-20T00:34:45.563Z,60.43
2022-11-20T00:35:18.687Z,59.22
2022-11-20T00:35:54.687Z,57.42
2022-11-20T00:36:30.161Z,56.07
2022-11-20T00:37:07.375Z,55.23
2022-11-20T00:37:41.364Z,55.13
2022-11-20T00:38:15.722Z,55.50
2022-11-20T00:38:53.486Z,55.92
2022-11-20T00:39:27.803Z,56.40
2022-11-20T00:40:01.664Z,57.06
2022-11-20T00:40:35.467Z,57.70
2022-11-20T00:41:14.654Z,58.29
2022-11-20T00:41:49.312Z,58.72
2022-11-20T00:42:25.832Z,59.45
2022-11-20T00:43:00.197Z,60.02
2022-11-20T00:43:33.629Z,60.57
2022-11-20T00:44:06.839Z,61.07
2022-11-20T00:44:40.015Z,61.49
2022-11-20T00:45:13.069Z,61.84
2022-11-20T00:45:46.050Z,62.09
2022-11-20T00:46:20.476Z,62.39
2022-11-20T00:46:53.447Z,62.84
2022-11-20T00:47:26.457Z,63.50
2022-11-20T00:47:59.476Z,63.77
2022-11-20T00:48:32.770Z,63.51
2022-11-20T00:49:05.808Z,62.85
2022-11-20T00:49:39.069Z,61.87
2022-11-20T00:50:12.074Z,60.77
2022-11-20T00:50:45.088Z,59.58
2022-11-20T00:51:22.641Z,58.12
2022-11-20T00:51:55.819Z,56.52
2022-11-20T00:52:28.935Z,55.45
2022-11-20T00:53:01.969Z,55.08
2022-11-20T00:53:35.106Z,55.09
2022-11-20T00:54:08.289Z,55.29
2022-11-20T00:54:41.467Z,55.73
2022-11-20T00:55:14.617Z,56.14
2022-11-20T00:55:57.856Z,56.71
2022-11-20T00:56:30.864Z,57.30
2022-11-20T00:57:03.902Z,58.17
2022-11-20T00:57:36.902Z,58.68
2022-11-20T00:58:14.179Z,59.28
2022-11-20T00:58:48.353Z,59.74
2022-11-20T00:59:21.742Z,60.22
2022-11-20T01:00:07.241Z,60.63
2022-11-20T01:00:40.622Z,60.84
2022-11-20T01:01:14.068Z,61.53
2022-11-20T01:01:47.489Z,61.93
2022-11-20T01:02:20.667Z,62.24
2022-11-20T01:02:53.873Z,62.59
2022-11-20T01:03:27.337Z,63.12
2022-11-20T01:04:01.796Z,63.36
2022-11-20T01:04:34.957Z,63.39
2022-11-20T01:05:08.154Z,62.53
2022-11-20T01:05:41.167Z,61.63
2022-11-20T01:06:15.741Z,60.59
2022-11-20T01:06:48.759Z,59.55
2022-11-20T01:07:21.960Z,58.30
2022-11-20T01:07:55.041Z,56.62
2022-11-20T01:08:30.468Z,55.50
2022-11-20T01:09:07.883Z,55.04
2022-11-20T01:09:40.946Z,54.94
2022-11-20T01:10:13.990Z,55.38
2022-11-20T01:10:47.209Z,56.03
2022-11-20T01:11:21.729Z,56.67
2022-11-20T01:11:54.815Z,57.25
2022-11-20T01:12:27.920Z,57.91
2022-11-20T01:13:25.379Z,58.51
2022-11-20T01:13:59.840Z,58.52
2022-11-20T01:14:32.893Z,59.64
2022-11-20T01:15:06.446Z,60.28
2022-11-20T01:15:39.584Z,60.91
2022-11-20T01:16:17.297Z,61.56
2022-11-20T01:16:52.273Z,61.80
2022-11-20T01:17:27.010Z,62.38
2022-11-20T01:18:00.095Z,63.01
2022-11-20T01:18:33.413Z,63.72
2022-11-20T01:19:07.815Z,64.02
2022-11-20T01:19:40.968Z,63.87
2022-11-20T01:20:14.378Z,63.12
2022-11-20T01:20:47.537Z,61.97
2022-11-20T01:21:22.282Z,60.80
2022-11-20T01:21:55.413Z,59.64
2022-11-20T01:22:28.505Z,58.11
2022-11-20T01:23:01.703Z,56.48
2022-11-20T01:23:38.726Z,55.24
2022-11-20T01:24:14.619Z,54.59
2022-11-20T01:24:47.844Z,54.62
2022-11-20T01:25:20.817Z,54.85
2022-11-20T01:25:53.927Z,55.35
2022-11-20T01:26:29.396Z,55.92
2022-11-20T01:27:02.478Z,56.53
2022-11-20T01:27:35.592Z,57.26
2022-11-20T01:28:08.857Z,57.85
2022-11-20T01:28:42.163Z,58.42
2022-11-20T01:29:17.939Z,59.09
2022-11-20T01:29:51.166Z,59.66
2022-11-20T01:30:24.235Z,60.07
2022-11-20T01:30:57.406Z,60.56
2022-11-20T01:31:31.823Z,60.97
2022-11-20T01:32:05.009Z,61.31
2022-11-20T01:32:38.105Z,61.75
2022-11-20T01:33:11.295Z,62.26
2022-11-20T01:33:45.012Z,62.86
2022-11-20T01:34:19.110Z,63.62
2022-11-20T01:34:52.264Z,64.24
2022-11-20T01:35:25.361Z,64.18
2022-11-20T01:36:04.579Z,63.60
2022-11-20T01:36:38.955Z,62.72
2022-11-20T01:37:12.046Z,61.08
2022-11-20T01:37:45.186Z,59.51
2022-11-20T01:38:18.658Z,58.20
2022-11-20T01:38:55.069Z,56.74
2022-11-20T01:39:28.282Z,55.38
2022-11-20T01:40:01.266Z,54.96
2022-11-20T01:40:34.328Z,54.97
2022-11-20T01:41:07.578Z,55.11
2022-11-20T01:41:59.620Z,55.51
2022-11-20T01:42:51.575Z,55.68
2022-11-20T01:43:26.276Z,56.64
2022-11-20T01:44:00.076Z,57.98
2022-11-20T01:44:46.861Z,58.73
2022-11-20T01:45:38.658Z,59.07
2022-11-20T01:46:18.080Z,59.59
2022-11-20T01:46:57.807Z,60.82
2022-11-20T01:47:39.690Z,61.55
2022-11-20T01:48:12.785Z,62.15
2022-11-20T01:48:55.084Z,62.82
2022-11-20T01:49:33.277Z,63.96
2022-11-20T01:50:06.581Z,64.37
2022-11-20T01:50:39.723Z,63.76
2022-11-20T01:51:25.105Z,62.95
2022-11-20T01:52:00.384Z,62.77
2022-11-20T01:52:45.868Z,60.64
2022-11-20T01:53:20.217Z,59.85
2022-11-20T01:53:55.300Z,57.33
2022-11-20T01:54:37.387Z,56.13
2022-11-20T01:55:14.292Z,55.43
2022-11-20T01:55:49.637Z,55.53
2022-11-20T01:56:22.923Z,55.94
2022-11-20T01:56:57.937Z,56.56
2022-11-20T01:57:33.013Z,57.08
2022-11-20T01:58:06.368Z,57.68
2022-11-20T01:58:43.516Z,58.25
2022-11-20T01:59:18.908Z,58.64
2022-11-20T01:59:56.051Z,59.33
2022-11-20T02:00:29.427Z,59.83
2022-11-20T02:01:02.734Z,60.45
2022-11-20T02:01:36.038Z,60.95
2022-11-20T02:02:09.123Z,61.42
2022-11-20T02:02:43.881Z,61.91
2022-11-20T02:03:18.130Z,62.26
2022-11-20T02:03:51.574Z,62.70
2022-11-20T02:04:26.112Z,63.39
2022-11-20T02:05:02.427Z,63.93
2022-11-20T02:05:43.096Z,63.87
2022-11-20T02:06:16.053Z,63.71
2022-11-20T02:06:50.893Z,62.04
2022-11-20T02:07:25.024Z,60.87
2022-11-20T02:07:59.232Z,59.57
2022-11-20T02:08:32.791Z,58.15
2022-11-20T02:09:05.816Z,56.39
2022-11-20T02:09:38.845Z,55.41
2022-11-20T02:10:12.483Z,55.00
2022-11-20T02:10:45.643Z,54.91
2022-11-20T02:11:18.747Z,55.30
2022-11-20T02:11:52.229Z,55.66
2022-11-20T02:12:43.935Z,56.25
2022-11-20T02:13:35.826Z,56.34
2022-11-20T02:14:09.205Z,57.09
2022-11-20T02:14:42.681Z,58.46
2022-11-20T02:15:15.749Z,59.04
2022-11-20T02:15:49.068Z,59.54
2022-11-20T02:16:22.020Z,60.07
2022-11-20T02:16:56.203Z,60.53
2022-11-20T02:17:53.285Z,60.93
2022-11-20T02:18:26.779Z,60.68
2022-11-20T02:19:02.928Z,61.86
2022-11-20T02:19:36.220Z,62.36
2022-11-20T02:20:09.968Z,62.96
2022-11-20T02:20:46.614Z,63.55
2022-11-20T02:21:28.681Z,64.23
2022-11-20T02:22:01.690Z,64.53
2022-11-20T02:22:38.542Z,63.15
2022-11-20T02:23:20.961Z,62.18
2022-11-20T02:24:01.010Z,61.47
2022-11-20T02:24:33.934Z,60.02
2022-11-20T02:25:08.216Z,57.94
2022-11-20T02:25:42.418Z,56.16
2022-11-20T02:26:17.424Z,55.19
2022-11-20T02:26:55.638Z,54.63
2022-11-20T02:27:28.644Z,54.67
2022-11-20T02:28:01.972Z,55.07
2022-11-20T02:28:35.008Z,55.51
2022-11-20T02:29:08.032Z,56.05
2022-11-20T02:29:41.186Z,56.84
2022-11-20T02:30:14.327Z,57.49
2022-11-20T02:30:47.328Z,57.99
2022-11-20T02:31:20.412Z,58.60
2022-11-20T02:31:55.200Z,59.33
2022-11-20T02:32:28.411Z,59.90
2022-11-20T02:33:01.622Z,60.47
2022-11-20T02:33:34.703Z,60.95
2022-11-20T02:34:08.216Z,61.49
2022-11-20T02:34:41.297Z,61.99
2022-11-20T02:35:20.480Z,62.56
2022-11-20T02:35:53.496Z,63.25
2022-11-20T02:36:28.737Z,63.91
2022-11-20T02:37:01.939Z,64.11
2022-11-20T02:37:36.566Z,63.78
2022-11-20T02:38:09.751Z,63.15
2022-11-20T02:38:43.865Z,61.94
2022-11-20T02:39:18.271Z,60.85
2022-11-20T02:39:52.491Z,59.56
2022-11-20T02:40:25.953Z,58.28
2022-11-20T02:41:06.419Z,56.73
2022-11-20T02:41:39.779Z,55.60
2022-11-20T02:42:13.005Z,55.32
2022-11-20T02:42:46.426Z,55.50
2022-11-20T02:43:19.857Z,55.87
2022-11-20T02:43:52.951Z,56.26
2022-11-20T02:44:26.391Z,56.84
2022-11-20T02:44:59.557Z,57.53
2022-11-20T02:45:33.130Z,58.19
2022-11-20T02:46:10.588Z,58.67
2022-11-20T02:46:53.252Z,59.29
2022-11-20T02:47:26.361Z,59.67
2022-11-20T02:47:59.599Z,60.52
2022-11-20T02:48:34.115Z,61.02
2022-11-20T02:49:07.532Z,61.49
2022-11-20T02:49:40.562Z,61.98
2022-11-20T02:50:13.871Z,62.50
2022-11-20T02:50:47.211Z,62.94
2022-11-20T02:51:20.443Z,63.55
2022-11-20T02:51:53.645Z,63.88
2022-11-20T02:52:27.179Z,63.66
2022-11-20T02:53:00.273Z,62.95
2022-11-20T02:53:33.307Z,61.80
2022-11-20T02:54:06.427Z,60.55
2022-11-20T02:54:39.674Z,59.37
2022-11-20T02:55:13.183Z,57.95
2022-11-20T02:55:46.613Z,56.39
2022-11-20T02:56:19.828Z,55.38
2022-11-20T02:56:53.219Z,55.17
2022-11-20T02:57:26.249Z,55.25
2022-11-20T02:57:59.470Z,55.60
2022-11-20T02:58:32.617Z,56.13
2022-11-20T02:59:05.854Z,56.74
2022-11-20T02:59:39.037Z,57.34
2022-11-20T03:00:12.496Z,57.92
2022-11-20T03:00:45.677Z,58.60
2022-11-20T03:01:18.803Z,59.19
2022-11-20T03:01:51.938Z,59.75
2022-11-20T03:02:25.155Z,60.37
2022-11-20T03:02:58.330Z,60.90
2022-11-20T03:03:31.362Z,61.49
2022-11-20T03:04:04.600Z,62.00
2022-11-20T03:04:37.751Z,62.43
2022-11-20T03:05:10.867Z,62.99
2022-11-20T03:05:43.927Z,63.74
2022-11-20T03:06:18.051Z,64.01
2022-11-20T03:06:51.132Z,63.72
2022-11-20T03:07:24.402Z,62.96
2022-11-20T03:07:57.545Z,61.97
2022-11-20T03:08:30.635Z,60.78
2022-11-20T03:09:03.636Z,59.56
2022-11-20T03:09:36.847Z,58.42
2022-11-20T03:10:10.098Z,56.90
2022-11-20T03:10:43.253Z,55.97
2022-11-20T03:11:16.298Z,55.57
2022-11-20T03:11:49.380Z,55.52
2022-11-20T03:12:22.631Z,55.76
2022-11-20T03:12:56.651Z,56.21
2022-11-20T03:13:29.739Z,56.64
2022-11-20T03:14:03.635Z,57.36
2022-11-20T03:14:36.766Z,57.94
2022-11-20T03:15:10.314Z,58.58
2022-11-20T03:15:43.375Z,59.20
2022-11-20T03:16:17.567Z,59.78
2022-11-20T03:16:50.547Z,60.39
2022-11-20T03:17:23.673Z,60.93
2022-11-20T03:17:57.439Z,61.56
2022-11-20T03:18:30.604Z,62.13
2022-11-20T03:19:03.631Z,62.69
2022-11-20T03:19:36.744Z,63.37
2022-11-20T03:20:10.317Z,63.72
2022-11-20T03:20:43.348Z,63.76
2022-11-20T03:21:17.010Z,63.06
2022-11-20T03:21:50.122Z,62.04
2022-11-20T03:22:23.356Z,60.81
2022-11-20T03:22:56.565Z,59.79
2022-11-20T03:23:30.558Z,58.63
2022-11-20T03:24:04.128Z,57.03
2022-11-20T03:24:37.362Z,55.88
2022-11-20T03:25:10.600Z,55.39
2022-11-20T03:25:43.902Z,55.35
2022-11-20T03:26:17.137Z,55.60
2022-11-20T03:26:50.217Z,55.99
2022-11-20T03:27:23.438Z,56.60
2022-11-20T03:27:56.610Z,57.20
2022-11-20T03:28:29.711Z,57.75
2022-11-20T03:29:04.013Z,58.37
2022-11-20T03:29:37.084Z,58.93
2022-11-20T03:30:10.553Z,59.55
2022-11-20T03:30:43.730Z,60.17
2022-11-20T03:31:17.453Z,60.57
2022-11-20T03:31:50.487Z,60.98
2022-11-20T03:32:23.601Z,61.42
2022-11-20T03:32:56.778Z,61.80
2022-11-20T03:33:29.758Z,62.20
2022-11-20T03:34:03.729Z,62.66
2022-11-20T03:34:36.791Z,63.40
2022-11-20T03:35:10.109Z,63.90
2022-11-20T03:35:43.151Z,63.75
2022-11-20T03:36:17.493Z,63.00
2022-11-20T03:36:50.642Z,62.16
2022-11-20T03:37:23.701Z,60.75
2022-11-20T03:37:56.904Z,59.55
2022-11-20T03:38:30.693Z,58.37
2022-11-20T03:39:03.827Z,56.80
2022-11-20T03:39:36.983Z,55.56
2022-11-20T03:40:10.627Z,55.12
2022-11-20T03:40:43.703Z,55.05
2022-11-20T03:41:21.376Z,55.32
2022-11-20T03:41:54.729Z,55.75
2022-11-20T03:42:46.343Z,56.43
2022-11-20T03:43:19.567Z,56.56
2022-11-20T03:43:53.809Z,57.92
2022-11-20T03:44:26.979Z,58.66
2022-11-20T03:45:00.022Z,59.21
2022-11-20T03:45:33.140Z,59.81
2022-11-20T03:46:06.625Z,60.22
2022-11-20T03:46:39.775Z,60.60
2022-11-20T03:47:12.944Z,61.10
2022-11-20T03:47:46.083Z,61.59
2022-11-20T03:48:19.251Z,62.03
2022-11-20T03:48:52.765Z,62.57
2022-11-20T03:49:25.843Z,63.28
2022-11-20T03:49:58.827Z,63.83
2022-11-20T03:50:31.829Z,63.82
2022-11-20T03:51:08.687Z,63.35
2022-11-20T03:51:41.788Z,62.64
2022-11-20T03:52:14.972Z,61.21
2022-11-20T03:52:48.136Z,59.82
2022-11-20T03:53:21.709Z,58.50
2022-11-20T03:53:55.700Z,56.79
2022-11-20T03:54:28.931Z,55.57
2022-11-20T03:55:02.325Z,55.15
2022-11-20T03:55:35.331Z,55.01
2022-11-20T03:56:09.209Z,55.29
2022-11-20T03:56:42.298Z,55.80
2022-11-20T03:57:15.375Z,56.42
2022-11-20T03:57:48.443Z,57.10
2022-11-20T03:58:21.520Z,57.77
2022-11-20T03:58:55.216Z,58.21
2022-11-20T03:59:28.373Z,58.76
2022-11-20T04:00:01.530Z,59.26
2022-11-20T04:00:34.746Z,59.84
2022-11-20T04:01:07.847Z,60.33
2022-11-20T04:01:43.151Z,60.85
2022-11-20T04:02:20.014Z,61.08
2022-11-20T04:02:53.175Z,61.62
2022-11-20T04:03:27.061Z,62.07
2022-11-20T04:04:00.201Z,62.41
2022-11-20T04:04:33.443Z,62.79
2022-11-20T04:05:06.745Z,63.36
2022-11-20T04:05:39.927Z,63.68
2022-11-20T04:06:14.597Z,63.52
2022-11-20T04:06:48.109Z,62.88
2022-11-20T04:07:21.188Z,61.80
2022-11-20T04:07:54.929Z,60.74
2022-11-20T04:08:29.384Z,59.41
2022-11-20T04:09:02.485Z,57.96
2022-11-20T04:09:35.422Z,56.20
2022-11-20T04:10:08.649Z,55.00
2022-11-20T04:10:41.645Z,54.51
2022-11-20T04:11:17.837Z,54.51
2022-11-20T04:11:51.009Z,54.76
2022-11-20T04:12:24.226Z,55.42
2022-11-20T04:12:57.466Z,56.13
2022-11-20T04:13:30.578Z,56.74
2022-11-20T04:14:05.004Z,57.42
2022-11-20T04:14:38.184Z,58.01
2022-11-20T04:15:11.318Z,58.51
2022-11-20T04:15:44.312Z,58.99
2022-11-20T04:16:17.803Z,59.56
2022-11-20T04:16:50.805Z,60.07
2022-11-20T04:17:23.758Z,60.50
2022-11-20T04:17:57.100Z,60.99
2022-11-20T04:18:30.288Z,61.38
2022-11-20T04:19:05.315Z,61.76
2022-11-20T04:19:38.275Z,62.11
2022-11-20T04:20:11.510Z,62.53
2022-11-20T04:20:44.570Z,63.14
2022-11-20T04:21:17.704Z,63.70
2022-11-20T04:21:50.793Z,63.68
2022-11-20T04:22:24.024Z,63.14
2022-11-20T04:22:57.030Z,62.34
2022-11-20T04:23:30.137Z,61.14
2022-11-20T04:24:03.548Z,59.84
2022-11-20T04:24:36.531Z,58.30
2022-11-20T04:25:09.792Z,56.71
2022-11-20T04:25:42.762Z,55.46
2022-11-20T04:26:15.764Z,54.77
2022-11-20T04:26:48.710Z,54.61
2022-11-20T04:27:21.866Z,54.85
2022-11-20T04:27:54.728Z,55.29
2022-11-20T04:28:27.752Z,55.84
2022-11-20T04:29:02.959Z,56.38
2022-11-20T04:29:36.031Z,57.06
2022-11-20T04:30:09.426Z,57.75
2022-11-20T04:30:42.392Z,58.34
2022-11-20T04:31:16.619Z,58.87
2022-11-20T04:31:49.743Z,59.28
2022-11-20T04:32:22.968Z,59.77
2022-11-20T04:32:56.030Z,60.32
2022-11-20T04:33:33.738Z,60.82
2022-11-20T04:34:08.241Z,61.20
2022-11-20T04:34:41.362Z,61.77
2022-11-20T04:35:14.399Z,62.26
2022-11-20T04:35:48.745Z,62.69
2022-11-20T04:36:22.965Z,63.38
2022-11-20T04:36:56.064Z,63.92
2022-11-20T04:37:29.092Z,63.84
2022-11-20T04:38:02.200Z,63.10
2022-11-20T04:38:35.461Z,61.92
2022-11-20T04:39:08.697Z,60.70
2022-11-20T04:39:41.986Z,59.46
2022-11-20T04:40:15.047Z,58.15
2022-11-20T04:40:48.122Z,56.69
2022-11-20T04:41:22.062Z,55.39
2022-11-20T04:42:15.060Z,55.06
2022-11-20T04:42:48.266Z,54.84
2022-11-20T04:43:21.372Z,55.55
2022-11-20T04:44:00.638Z,56.12
2022-11-20T04:44:34.014Z,56.37
2022-11-20T04:45:07.300Z,57.28
2022-11-20T04:45:40.313Z,58.03
2022-11-20T04:46:13.312Z,58.68
2022-11-20T04:46:46.463Z,59.20
2022-11-20T04:47:19.534Z,59.84
2022-11-20T04:47:52.825Z,60.42
2022-11-20T04:48:26.184Z,60.93
2022-11-20T04:49:00.234Z,61.39
2022-11-20T04:49:33.880Z,61.91
2022-11-20T04:50:07.188Z,62.31
2022-11-20T04:50:41.639Z,62.68
2022-11-20T04:51:15.014Z,63.62
2022-11-20T04:51:48.023Z,63.94
2022-11-20T04:52:21.306Z,63.82
2022-11-20T04:52:54.594Z,63.20
2022-11-20T04:53:27.830Z,62.19
2022-11-20T04:54:01.367Z,60.95
2022-11-20T04:54:34.510Z,59.92
2022-11-20T04:55:07.751Z,58.58
2022-11-20T04:55:40.854Z,57.11
2022-11-20T04:56:14.475Z,55.84
2022-11-20T04:56:50.900Z,55.27
2022-11-20T04:57:24.119Z,55.34
2022-11-20T04:57:57.193Z,55.65
2022-11-20T04:58:30.377Z,56.05
2022-11-20T04:59:03.704Z,56.53
2022-11-20T04:59:37.162Z,57.07
2022-11-20T05:00:10.671Z,57.58
2022-11-20T05:00:44.249Z,58.05
2022-11-20T05:01:19.956Z,58.58
2022-11-20T05:01:53.198Z,59.03
2022-11-20T05:02:26.730Z,59.62
2022-11-20T05:02:59.841Z,60.14
2022-11-20T05:03:34.295Z,60.50
2022-11-20T05:04:08.797Z,60.84
2022-11-20T05:04:42.010Z,61.31
2022-11-20T05:05:15.113Z,61.66
2022-11-20T05:05:48.451Z,61.97
2022-11-20T05:06:22.356Z,62.41
2022-11-20T05:06:55.869Z,62.79
2022-11-20T05:07:28.951Z,63.48
2022-11-20T05:08:02.099Z,63.85
2022-11-20T05:08:35.516Z,63.72
2022-11-20T05:09:08.739Z,62.98
2022-11-20T05:09:41.897Z,61.72
2022-11-20T05:10:15.346Z,60.38
2022-11-20T05:10:48.408Z,59.14
2022-11-20T05:11:22.104Z,57.60
2022-11-20T05:11:55.255Z,56.45
2022-11-20T05:12:29.965Z,55.81
2022-11-20T05:13:03.213Z,55.64
2022-11-20T05:13:36.339Z,55.82
2022-11-20T05:14:09.436Z,56.18
2022-11-20T05:14:42.547Z,56.71
2022-11-20T05:15:15.831Z,57.25
2022-11-20T05:15:49.271Z,57.82
2022-11-20T05:16:24.195Z,58.34
2022-11-20T05:16:57.474Z,58.94
2022-11-20T05:17:30.598Z,59.49
2022-11-20T05:18:03.849Z,60.02
2022-11-20T05:18:38.610Z,60.47
2022-11-20T05:19:12.176Z,60.96
2022-11-20T05:19:48.328Z,61.46
2022-11-20T05:20:23.682Z,61.67
2022-11-20T05:20:57.858Z,62.18
2022-11-20T05:21:32.832Z,62.57
2022-11-20T05:22:06.636Z,63.41
2022-11-20T05:22:39.995Z,63.87
2022-11-20T05:23:13.288Z,63.83
2022-11-20T05:23:47.388Z,63.13
2022-11-20T05:24:20.519Z,61.97
2022-11-20T05:24:53.533Z,60.56
2022-11-20T05:25:26.798Z,59.40
2022-11-20T05:26:00.477Z,57.90
2022-11-20T05:26:33.961Z,56.19
2022-11-20T05:27:07.323Z,54.97
2022-11-20T05:27:40.691Z,54.35
2022-11-20T05:28:14.061Z,54.37
2022-11-20T05:28:48.268Z,54.64
2022-11-20T05:29:21.723Z,54.96
2022-11-20T05:29:54.875Z,55.50
2022-11-20T05:30:28.191Z,56.14
2022-11-20T05:31:07.352Z,56.82
2022-11-20T05:31:41.683Z,57.26
2022-11-20T05:32:14.824Z,57.97
2022-11-20T05:32:47.889Z,58.67
2022-11-20T05:33:21.107Z,59.37
2022-11-20T05:33:54.969Z,60.05
2022-11-20T05:34:28.239Z,60.58
2022-11-20T05:35:01.324Z,61.06
2022-11-20T05:35:34.540Z,61.43
2022-11-20T05:36:08.163Z,61.89
2022-11-20T05:36:41.270Z,62.25
2022-11-20T05:37:14.538Z,62.66
2022-11-20T05:37:47.712Z,63.22
2022-11-20T05:38:20.962Z,63.65
2022-11-20T05:38:59.702Z,63.71
2022-11-20T05:39:34.626Z,63.82
2022-11-20T05:40:08.381Z,62.17
2022-11-20T05:40:41.712Z,60.82
2022-11-20T05:41:16.408Z,59.62
2022-11-20T05:42:09.460Z,58.28
2022-11-20T05:42:45.084Z,56.43
2022-11-20T05:43:18.327Z,54.91
2022-11-20T05:43:52.079Z,54.50
2022-11-20T05:44:25.158Z,54.37
2022-11-20T05:45:02.016Z,54.74
2022-11-20T05:45:35.317Z,55.21
2022-11-20T05:46:09.502Z,55.90
2022-11-20T05:46:42.860Z,56.44
2022-11-20T05:47:16.012Z,57.09
2022-11-20T05:47:49.162Z,57.70
2022-11-20T05:48:22.700Z,58.28
2022-11-20T05:48:56.437Z,58.80
2022-11-20T05:49:29.687Z,59.36
2022-11-20T05:50:02.959Z,59.95
2022-11-20T05:50:36.639Z,60.36
2022-11-20T05:51:10.909Z,60.70
2022-11-20T05:51:43.996Z,61.11
2022-11-20T05:52:17.188Z,61.52
2022-11-20T05:52:50.442Z,61.87
2022-11-20T05:53:26.365Z,62.21
2022-11-20T05:54:00.900Z,62.58
2022-11-20T05:54:34.065Z,63.42
2022-11-20T05:55:07.803Z,63.98
2022-11-20T05:55:41.052Z,64.22
2022-11-20T05:56:15.637Z,63.61
2022-11-20T05:56:48.663Z,62.55
2022-11-20T05:57:21.808Z,61.52
2022-11-20T05:57:56.275Z,60.43
2022-11-20T05:58:29.835Z,59.39
2022-11-20T05:59:02.913Z,57.54
2022-11-20T05:59:36.128Z,56.09
2022-11-20T06:00:09.516Z,55.49
2022-11-20T06:00:42.759Z,55.37
2022-11-20T06:01:15.780Z,55.53
2022-11-20T06:01:49.037Z,56.03
2022-11-20T06:02:22.430Z,56.67
2022-11-20T06:02:55.792Z,57.30
2022-11-20T06:03:28.903Z,57.98
2022-11-20T06:04:02.101Z,58.61
2022-11-20T06:04:35.371Z,59.11
2022-11-20T06:05:09.020Z,59.75
2022-11-20T06:05:42.289Z,60.34
2022-11-20T06:06:16.191Z,61.01
2022-11-20T06:06:49.559Z,61.67
2022-11-20T06:07:23.173Z,62.33
2022-11-20T06:07:56.218Z,62.85
2022-11-20T06:08:29.442Z,63.61
2022-11-20T06:09:02.565Z,63.94
2022-11-20T06:09:35.668Z,63.84
2022-11-20T06:10:08.933Z,63.27
2022-11-20T06:10:42.125Z,62.31
2022-11-20T06:11:15.761Z,61.06
2022-11-20T06:11:48.959Z,59.89
2022-11-20T06:12:22.271Z,58.63
2022-11-20T06:12:58.365Z,57.03
2022-11-20T06:13:31.414Z,55.75
2022-11-20T06:14:04.724Z,55.18
2022-11-20T06:14:37.893Z,55.13
2022-11-20T06:15:11.354Z,55.40
2022-11-20T06:15:49.498Z,55.86
2022-11-20T06:16:23.079Z,56.37
2022-11-20T06:16:56.223Z,57.18
2022-11-20T06:17:29.467Z,57.77
2022-11-20T06:18:02.736Z,58.28
2022-11-20T06:18:35.956Z,58.85
2022-11-20T06:19:09.994Z,59.44
2022-11-20T06:19:43.754Z,60.02
2022-11-20T06:20:16.882Z,60.60
2022-11-20T06:20:50.004Z,61.15
2022-11-20T06:21:23.798Z,61.69
2022-11-20T06:21:56.934Z,62.16
2022-11-20T06:22:30.099Z,62.65
2022-11-20T06:23:03.161Z,63.35
2022-11-20T06:23:36.877Z,63.91
2022-11-20T06:24:13.157Z,63.92
2022-11-20T06:24:46.186Z,63.58
2022-11-20T06:25:19.177Z,62.50
2022-11-20T06:25:52.213Z,61.22
2022-11-20T06:26:26.567Z,60.04
2022-11-20T06:26:59.691Z,58.77
2022-11-20T06:27:32.824Z,57.01
2022-11-20T06:28:06.081Z,55.72
2022-11-20T06:28:39.531Z,55.09
2022-11-20T06:29:13.146Z,54.98
2022-11-20T06:29:46.160Z,55.16
2022-11-20T06:30:19.328Z,55.64
2022-11-20T06:30:52.429Z,56.16
2022-11-20T06:31:26.341Z,56.78
2022-11-20T06:31:59.382Z,57.44
2022-11-20T06:32:32.652Z,58.06
2022-11-20T06:33:05.787Z,58.65
2022-11-20T06:33:38.835Z,59.23
2022-11-20T06:34:11.955Z,59.78
2022-11-20T06:34:44.938Z,60.32
2022-11-20T06:35:17.982Z,60.77
2022-11-20T06:35:55.496Z,61.25
2022-11-20T06:36:31.618Z,61.48
2022-11-20T06:37:04.941Z,62.19
2022-11-20T06:37:38.134Z,62.68
2022-11-20T06:38:11.259Z,63.41
2022-11-20T06:38:44.684Z,63.92
2022-11-20T06:39:17.744Z,63.82
2022-11-20T06:39:50.719Z,63.16
2022-11-20T06:40:23.889Z,61.99
2022-11-20T06:40:57.514Z,60.86
2022-11-20T06:41:30.892Z,59.62
2022-11-20T06:42:04.124Z,58.33
2022-11-20T06:42:37.202Z,56.65
2022-11-20T06:43:13.120Z,55.42
2022-11-20T06:43:46.451Z,54.95
2022-11-20T06:44:19.694Z,54.88
2022-11-20T06:44:53.007Z,55.10
2022-11-20T06:45:26.244Z,55.65
2022-11-20T06:45:59.841Z,56.13
2022-11-20T06:46:33.398Z,56.78
2022-11-20T06:47:06.521Z,57.51
2022-11-20T06:47:39.647Z,58.07
2022-11-20T06:48:12.780Z,58.74
2022-11-20T06:48:46.407Z,59.28
2022-11-20T06:49:19.795Z,59.83
2022-11-20T06:49:53.157Z,60.38
2022-11-20T06:50:26.603Z,60.82
2022-11-20T06:51:00.246Z,61.30
2022-11-20T06:51:33.384Z,61.77
2022-11-20T06:52:06.598Z,62.31
2022-11-20T06:52:43.636Z,62.85
2022-11-20T06:53:17.214Z,63.60
2022-11-20T06:53:50.442Z,64.00
2022-11-20T06:54:23.456Z,63.78
2022-11-20T06:54:56.598Z,62.85
2022-11-20T06:55:29.858Z,61.82
2022-11-20T06:56:03.629Z,60.66
2022-11-20T06:56:36.755Z,59.53
2022-11-20T06:57:09.876Z,58.03
2022-11-20T06:57:42.961Z,56.27
2022-11-20T06:58:16.827Z,55.19
2022-11-20T06:58:49.982Z,54.75
2022-11-20T06:59:23.344Z,54.68
2022-11-20T06:59:56.764Z,54.94
2022-11-20T07:00:29.927Z,55.42
2022-11-20T07:01:07.637Z,56.11
2022-11-20T07:01:40.775Z,56.77
2022-11-20T07:02:13.879Z,57.61
2022-11-20T07:02:47.102Z,58.27
2022-11-20T07:03:20.337Z,58.97
2022-11-20T07:03:54.629Z,59.62
2022-11-20T07:04:28.254Z,60.17
2022-11-20T07:05:01.401Z,60.76
2022-11-20T07:05:34.911Z,61.31
2022-11-20T07:06:08.422Z,61.80
2022-11-20T07:06:41.644Z,62.31
2022-11-20T07:07:14.789Z,62.63
2022-11-20T07:07:47.892Z,63.32
2022-11-20T07:08:20.976Z,63.67
2022-11-20T07:08:54.028Z,63.38
2022-11-20T07:09:27.591Z,62.70
2022-11-20T07:10:00.941Z,61.68
2022-11-20T07:10:34.302Z,60.69
2022-11-20T07:11:08.149Z,59.68
2022-11-20T07:11:41.280Z,58.42
2022-11-20T07:12:14.338Z,56.54
2022-11-20T07:12:50.838Z,55.33
2022-11-20T07:13:23.956Z,54.67
2022-11-20T07:13:58.186Z,54.71
2022-11-20T07:14:31.339Z,54.93
2022-11-20T07:15:04.718Z,55.28
2022-11-20T07:15:37.852Z,55.78
2022-11-20T07:16:10.974Z,56.35
2022-11-20T07:16:44.116Z,57.10
2022-11-20T07:17:17.221Z,57.88
2022-11-20T07:17:50.486Z,58.62
2022-11-20T07:18:23.752Z,59.21
2022-11-20T07:18:57.368Z,59.78
2022-11-20T07:19:31.615Z,60.43